createdAt,value
2018-09-19T00:01:15.657Z,99461.92
2018-09-19T00:07:20.268Z,99455.97
2018-09-19T00:13:24.971Z,99456.82
2018-09-19T00:19:29.603Z,99452.53
2018-09-19T00:25:34.260Z,99459.27
2018-09-19T00:31:38.808Z,99461.45
2018-09-19T00:37:43.375Z,99474.38
2018-09-19T00:43:47.987Z,99474.84
2018-09-19T00:49:53.598Z,99487.55
2018-09-19T00:55:58.239Z,99484.73
2018-09-19T01:02:02.831Z,99493.93
2018-09-19T01:08:07.434Z,99494.16
2018-09-19T01:14:12.017Z,99495.69
2018-09-19T01:20:16.888Z,99493.89
2018-09-19T01:26:21.512Z,99498.09
2018-09-19T01:32:26.453Z,99501.50
2018-09-19T01:38:31.887Z,99510.17
2018-09-19T01:44:36.472Z,99521.02
2018-09-19T01:50:41.355Z,99521.16
2018-09-19T01:56:45.963Z,99515.09
2018-09-19T02:02:50.830Z,99521.34
2018-09-19T02:08:55.424Z,99527.08
2018-09-19T02:15:00.007Z,99533.08
2018-09-19T02:21:04.633Z,99531.02
2018-09-19T02:27:09.215Z,99545.44
2018-09-19T02:33:13.790Z,99552.64
2018-09-19T02:39:18.395Z,99557.30
2018-09-19T02:45:23.023Z,99563.27
2018-09-19T02:51:28.009Z,99565.38
2018-09-19T02:57:32.639Z,99561.74
2018-09-19T03:03:37.205Z,99568.94
2018-09-19T03:09:41.762Z,99575.32
2018-09-19T03:15:46.330Z,99570.09
2018-09-19T03:21:50.930Z,99579.52
2018-09-19T03:27:55.491Z,99582.50
2018-09-19T03:34:00.498Z,99585.81
2018-09-19T03:40:05.144Z,99582.60
2018-09-19T03:46:09.710Z,99589.17
2018-09-19T03:52:14.300Z,99582.91
2018-09-19T03:58:18.940Z,99593.38
2018-09-19T04:04:23.514Z,99591.49
2018-09-19T04:10:28.087Z,99578.41
2018-09-19T04:16:32.635Z,99605.50
2018-09-19T04:22:37.277Z,99599.39
2018-09-19T04:28:42.147Z,99604.91
2018-09-19T04:34:46.762Z,99603.91
2018-09-19T04:40:51.379Z,99603.96
2018-09-19T04:46:55.962Z,99615.75
2018-09-19T04:53:00.563Z,99628.98
2018-09-19T04:59:05.246Z,99636.08
2018-09-19T05:05:09.876Z,99630.56
2018-09-19T05:11:14.465Z,99633.01
2018-09-19T05:17:19.059Z,99641.55
2018-09-19T05:23:23.643Z,99643.28
2018-09-19T05:29:28.189Z,99649.70
2018-09-19T05:35:32.804Z,99653.78
2018-09-19T05:41:37.440Z,99655.27
2018-09-19T05:47:42.060Z,99665.77
2018-09-19T05:53:46.654Z,99670.98
2018-09-19T05:59:51.375Z,99674.23
2018-09-19T06:05:55.992Z,99672.20
2018-09-19T06:12:00.563Z,99663.05
2018-09-19T06:18:05.178Z,99666.27
2018-09-19T06:24:09.767Z,99673.02
2018-09-19T06:30:14.353Z,99677.31
2018-09-19T06:36:19.013Z,99679.82
2018-09-19T06:42:23.615Z,99688.02
2018-09-19T06:48:28.176Z,99690.21
2018-09-19T06:54:32.764Z,99704.07
2018-09-19T07:00:37.382Z,99699.42
2018-09-19T07:06:42.312Z,99696.09
2018-09-19T07:12:47.361Z,99690.34
2018-09-19T07:18:52.034Z,99693.59
2018-09-19T07:24:56.957Z,99694.58
2018-09-19T07:31:01.636Z,99688.39
2018-09-19T07:37:06.245Z,99695.87
2018-09-19T07:43:10.857Z,99691.53
2018-09-19T07:49:15.475Z,99694.81
2018-09-19T07:55:20.098Z,99714.27
2018-09-19T08:01:24.671Z,99729.86
2018-09-19T08:07:29.266Z,99728.78
2018-09-19T08:13:33.866Z,99717.09
2018-09-19T08:19:38.598Z,99705.73
2018-09-19T08:25:43.202Z,99697.20
2018-09-19T08:31:47.750Z,99698.94
2018-09-19T08:37:52.347Z,99689.20
2018-09-19T08:43:56.944Z,99687.69
2018-09-19T08:50:01.520Z,99685.07
2018-09-19T08:56:06.151Z,99677.45
2018-09-19T09:02:10.765Z,99672.66
2018-09-19T09:08:15.391Z,99674.34
2018-09-19T09:14:20.011Z,99669.96
2018-09-19T09:20:24.583Z,99671.16
2018-09-19T09:26:29.170Z,99671.95
2018-09-19T09:32:33.724Z,99662.14
2018-09-19T09:38:38.329Z,99651.56
2018-09-19T09:44:42.958Z,99635.86
2018-09-19T09:50:47.554Z,99616.34
2018-09-19T09:56:52.508Z,99625.70
2018-09-19T10:02:57.084Z,99610.91
2018-09-19T10:09:01.677Z,99609.88
2018-09-19T10:15:06.701Z,99601.14
2018-09-19T10:21:11.347Z,99605.53
2018-09-19T10:27:15.965Z,99595.74
2018-09-19T10:33:20.564Z,99596.03
2018-09-19T10:39:25.155Z,99574.89
2018-09-19T10:45:29.792Z,99571.56
2018-09-19T10:51:34.365Z,99563.12
2018-09-19T10:57:38.983Z,99551.42
2018-09-19T11:03:43.565Z,99539.39
2018-09-19T11:09:48.187Z,99536.39
2018-09-19T11:15:52.764Z,99535.48
2018-09-19T11:21:57.378Z,99542.25
2018-09-19T11:28:01.981Z,99525.97
2018-09-19T11:34:06.588Z,99524.52
2018-09-19T11:40:11.193Z,99518.36
2018-09-19T11:46:15.772Z,99518.00
2018-09-19T11:52:20.349Z,99522.19
2018-09-19T11:58:24.912Z,99526.06
2018-09-19T12:04:29.481Z,99516.16
2018-09-19T12:10:34.065Z,99512.78
2018-09-19T12:16:39.085Z,99514.70
2018-09-19T12:22:43.648Z,99499.35
2018-09-19T12:28:48.235Z,99498.99
2018-09-19T12:34:52.826Z,99499.48
2018-09-19T12:40:57.449Z,99500.52
2018-09-19T12:47:02.052Z,99491.23
2018-09-19T12:53:06.621Z,99487.78
2018-09-19T12:59:11.238Z,99480.22
2018-09-19T13:05:15.846Z,99477.14
2018-09-19T13:11:20.809Z,99475.25
2018-09-19T13:17:25.341Z,99479.59
2018-09-19T13:23:29.896Z,99467.87
2018-09-19T13:29:34.487Z,99479.88
2018-09-19T13:35:39.046Z,99480.79
2018-09-19T13:41:43.636Z,99475.20
2018-09-19T13:47:48.492Z,99470.62
2018-09-19T13:53:53.258Z,99469.29
2018-09-19T13:59:58.418Z,99453.19
2018-09-19T14:06:03.006Z,99467.98
2018-09-19T14:12:07.696Z,99456.59
2018-09-19T14:18:12.545Z,99456.70
2018-09-19T14:24:17.229Z,99466.67
2018-09-19T14:30:21.854Z,99457.44
2018-09-19T14:36:26.439Z,99454.51
2018-09-19T14:42:31.017Z,99458.47
2018-09-19T14:48:35.624Z,99454.53
2018-09-19T14:54:40.205Z,99446.66
2018-09-19T15:00:45.100Z,99445.25
2018-09-19T15:06:49.734Z,99429.89
2018-09-19T15:12:54.669Z,99430.33
2018-09-19T15:18:59.279Z,99421.46
2018-09-19T15:25:03.888Z,99414.37
2018-09-19T15:31:08.853Z,99403.25
2018-09-19T15:37:13.422Z,99411.73
2018-09-19T15:43:17.953Z,99402.25
2018-09-19T15:49:22.537Z,99396.39
2018-09-19T15:55:27.162Z,99401.81
2018-09-19T16:01:32.104Z,99392.11
2018-09-19T16:07:36.750Z,99400.55
2018-09-19T16:13:41.354Z,99406.84
2018-09-19T16:19:45.991Z,99400.98
2018-09-19T16:25:50.584Z,99407.09
2018-09-19T16:31:55.185Z,99419.91
2018-09-19T16:37:59.816Z,99425.52
2018-09-19T16:44:04.547Z,99435.03
2018-09-19T16:50:09.230Z,99437.86
2018-09-19T16:56:13.843Z,99439.73
2018-09-19T17:02:18.421Z,99429.87
2018-09-19T17:08:22.974Z,99431.08
2018-09-19T17:14:27.585Z,99432.84
2018-09-19T17:20:32.154Z,99436.59
2018-09-19T17:26:36.827Z,99440.59
2018-09-19T17:32:41.455Z,99438.81
2018-09-19T17:38:46.111Z,99450.36
2018-09-19T17:44:50.753Z,99456.12
2018-09-19T17:50:55.665Z,99459.64
2018-09-19T17:57:00.338Z,99464.12
2018-09-19T18:03:04.934Z,99468.86
2018-09-19T18:09:09.557Z,99468.91
2018-09-19T18:15:14.089Z,99465.84
2018-09-19T18:21:18.709Z,99465.58
2018-09-19T18:27:23.288Z,99474.68
2018-09-19T18:33:27.841Z,99485.45
2018-09-19T18:39:32.449Z,99478.31
2018-09-19T18:45:37.049Z,99490.47
2018-09-19T18:51:41.666Z,99499.29
2018-09-19T18:57:46.242Z,99497.83
2018-09-19T19:03:50.848Z,99502.76
2018-09-19T19:09:55.440Z,99511.56
2018-09-19T19:16:00.017Z,99512.38
2018-09-19T19:22:04.605Z,99520.87
2018-09-19T19:28:09.238Z,99522.58
2018-09-19T19:34:13.796Z,99527.77
2018-09-19T19:40:18.388Z,99536.05
2018-09-19T19:46:22.946Z,99538.28
2018-09-19T19:52:27.546Z,99539.95
2018-09-19T19:58:32.173Z,99544.85
2018-09-19T20:04:36.853Z,99544.62
2018-09-19T20:10:41.545Z,99546.49
2018-09-19T20:16:46.185Z,99541.31
2018-09-19T20:22:50.871Z,99541.05
2018-09-19T20:28:55.479Z,99545.97
2018-09-19T20:35:00.142Z,99553.63
2018-09-19T20:41:04.835Z,99550.08
2018-09-19T20:47:09.515Z,99557.17
2018-09-19T20:53:14.247Z,99557.45
2018-09-19T20:59:18.932Z,99562.91
2018-09-19T21:05:23.622Z,99555.80
2018-09-19T21:11:28.687Z,99566.17
2018-09-19T21:17:33.351Z,99556.52
2018-09-19T21:23:38.062Z,99562.36
2018-09-19T21:29:42.774Z,99577.30
2018-09-19T21:35:47.413Z,99596.09
2018-09-19T21:41:52.005Z,99597.90
2018-09-19T21:47:56.603Z,99597.97
2018-09-19T21:54:01.196Z,99603.44
2018-09-19T22:00:07.470Z,99608.53
2018-09-19T22:06:12.080Z,99607.17
2018-09-19T22:12:16.747Z,99622.75
2018-09-19T22:18:21.329Z,99628.36
2018-09-19T22:24:25.902Z,99631.09
2018-09-19T22:30:30.437Z,99641.06
2018-09-19T22:36:35.371Z,99641.27
2018-09-19T22:42:39.944Z,99651.55
2018-09-19T22:48:44.557Z,99654.27
2018-09-19T22:54:49.176Z,99650.09
2018-09-19T23:00:54.106Z,99658.98
2018-09-19T23:06:58.766Z,99658.87
2018-09-19T23:13:03.370Z,99656.06
2018-09-19T23:19:07.917Z,99663.47
2018-09-19T23:25:12.904Z,99667.33
2018-09-19T23:31:17.492Z,99676.90
2018-09-19T23:37:22.083Z,99676.76
2018-09-19T23:43:26.699Z,99667.03
2018-09-19T23:49:31.249Z,99674.34
2018-09-19T23:55:35.826Z,99670.84
